createdAt,value
2019-01-29T00:01:40.787Z,0.73
2019-01-29T00:04:11.085Z,0.74
2019-01-29T00:06:44.667Z,0.68
2019-01-29T00:09:15.061Z,0.70
2019-01-29T00:11:45.763Z,0.61
2019-01-29T00:14:16.065Z,0.67
2019-01-29T00:16:46.979Z,0.68
2019-01-29T00:19:16.883Z,0.63
2019-01-29T00:21:46.842Z,0.62
2019-01-29T00:24:16.920Z,0.56
2019-01-29T00:26:46.875Z,0.59
2019-01-29T00:29:18.003Z,0.66
2019-01-29T00:31:48.584Z,0.63
2019-01-29T00:34:19.119Z,0.66
2019-01-29T00:36:49.671Z,0.73
2019-01-29T00:39:21.741Z,0.66
2019-01-29T00:41:52.181Z,0.60
2019-01-29T00:44:21.991Z,0.59
2019-01-29T00:46:51.833Z,0.74
2019-01-29T00:49:22.791Z,0.74
2019-01-29T00:51:52.791Z,0.78
2019-01-29T00:54:23.411Z,0.78
2019-01-29T00:56:53.455Z,0.78
2019-01-29T00:59:23.440Z,0.82
2019-01-29T01:01:54.972Z,0.88
2019-01-29T01:04:25.195Z,0.91
2019-01-29T01:06:55.339Z,0.95
2019-01-29T01:09:25.384Z,0.93
2019-01-29T01:11:55.177Z,0.94
2019-01-29T01:14:25.491Z,0.98
2019-01-29T01:16:56.085Z,1.01
2019-01-29T01:19:26.058Z,1.13
2019-01-29T01:21:55.923Z,1.10
2019-01-29T01:24:28.891Z,1.25
2019-01-29T01:26:58.934Z,1.09
2019-01-29T01:29:29.252Z,1.28
2019-01-29T01:31:59.695Z,1.38
2019-01-29T01:34:29.861Z,1.37
2019-01-29T01:36:59.770Z,1.38
2019-01-29T01:39:29.711Z,1.45
2019-01-29T01:41:59.711Z,1.46
2019-01-29T01:44:29.884Z,1.42
2019-01-29T01:47:00.691Z,1.43
2019-01-29T01:49:30.651Z,1.44
2019-01-29T01:52:00.598Z,1.28
2019-01-29T01:54:30.454Z,1.29
2019-01-29T01:57:00.292Z,1.29
2019-01-29T01:59:31.228Z,1.23
2019-01-29T02:02:01.088Z,1.30
2019-01-29T02:04:30.945Z,1.45
2019-01-29T02:07:01.029Z,1.56
2019-01-29T02:09:31.004Z,1.46
2019-01-29T02:12:01.388Z,1.41
2019-01-29T02:14:31.118Z,1.52
2019-01-29T02:17:01.116Z,1.46
2019-01-29T02:19:31.210Z,1.58
2019-01-29T02:22:01.352Z,1.52
2019-01-29T02:24:31.358Z,1.59
2019-01-29T02:27:01.378Z,1.55
2019-01-29T02:29:31.280Z,1.59
2019-01-29T02:32:01.241Z,1.62
2019-01-29T02:34:31.173Z,1.58
2019-01-29T02:37:04.194Z,1.56
2019-01-29T02:39:34.054Z,1.56
2019-01-29T02:42:03.966Z,1.55
2019-01-29T02:44:33.900Z,1.59
2019-01-29T02:47:03.744Z,1.71
2019-01-29T02:49:33.900Z,1.70
2019-01-29T02:52:03.812Z,1.72
2019-01-29T02:54:36.563Z,1.65
2019-01-29T02:57:06.422Z,1.66
2019-01-29T02:59:36.472Z,1.66
2019-01-29T03:02:06.489Z,1.77
2019-01-29T03:04:36.418Z,1.81
2019-01-29T03:07:06.065Z,1.80
2019-01-29T03:09:36.010Z,1.73
2019-01-29T03:12:05.941Z,1.73
2019-01-29T03:14:35.886Z,1.75
2019-01-29T03:17:05.857Z,1.72
2019-01-29T03:19:35.862Z,1.65
2019-01-29T03:22:07.687Z,1.76
2019-01-29T03:24:37.866Z,1.65
2019-01-29T03:27:08.536Z,1.74
2019-01-29T03:29:40.092Z,1.77
2019-01-29T03:32:09.889Z,1.60
2019-01-29T03:34:40.067Z,1.47
2019-01-29T03:37:10.168Z,1.54
2019-01-29T03:39:40.022Z,1.57
2019-01-29T03:42:10.223Z,1.56
2019-01-29T03:44:40.686Z,1.57
2019-01-29T03:47:13.156Z,1.56
2019-01-29T03:49:43.183Z,1.56
2019-01-29T03:52:13.186Z,1.46
2019-01-29T03:54:43.686Z,1.51
2019-01-29T03:57:13.839Z,1.44
2019-01-29T03:59:44.930Z,1.45
2019-01-29T04:02:14.843Z,1.40
2019-01-29T04:04:54.504Z,1.45
2019-01-29T04:07:28.744Z,1.57
2019-01-29T04:10:00.309Z,1.66
2019-01-29T04:12:30.162Z,1.69
2019-01-29T04:15:00.278Z,1.63
2019-01-29T04:17:31.840Z,1.67
2019-01-29T04:20:01.918Z,1.63
2019-01-29T04:22:31.865Z,1.79
2019-01-29T04:25:03.976Z,1.68
2019-01-29T04:27:34.074Z,1.66
2019-01-29T04:30:04.091Z,1.66
2019-01-29T04:32:42.643Z,1.76
2019-01-29T04:35:12.620Z,1.58
2019-01-29T04:37:42.516Z,1.67
2019-01-29T04:40:13.820Z,1.68
2019-01-29T04:42:43.793Z,1.86
2019-01-29T04:45:14.122Z,1.84
2019-01-29T04:47:45.053Z,1.77
2019-01-29T04:50:19.979Z,1.88
2019-01-29T04:52:50.135Z,1.86
2019-01-29T04:55:31.769Z,1.77
2019-01-29T04:58:02.042Z,1.76
2019-01-29T05:00:33.731Z,1.68
2019-01-29T05:03:06.403Z,1.72
2019-01-29T05:05:37.165Z,1.88
2019-01-29T05:08:08.046Z,1.81
2019-01-29T05:10:38.429Z,1.75
2019-01-29T05:13:09.563Z,1.69
2019-01-29T05:15:41.887Z,1.68
2019-01-29T05:18:12.139Z,1.74
2019-01-29T05:20:42.149Z,1.80
2019-01-29T05:23:12.207Z,1.75
2019-01-29T05:25:42.131Z,1.75
2019-01-29T05:28:12.144Z,1.79
2019-01-29T05:30:42.176Z,1.79
2019-01-29T05:33:21.216Z,1.72
2019-01-29T05:35:52.753Z,1.62
2019-01-29T05:38:22.966Z,1.80
2019-01-29T05:40:53.221Z,1.68
2019-01-29T05:43:23.405Z,1.71
2019-01-29T05:45:53.254Z,1.73
2019-01-29T05:48:33.078Z,1.81
2019-01-29T05:51:03.938Z,1.82
2019-01-29T05:53:34.900Z,1.74
2019-01-29T05:56:05.476Z,1.79
2019-01-29T05:58:35.688Z,1.77
2019-01-29T06:01:05.923Z,1.62
2019-01-29T06:03:39.472Z,1.60
2019-01-29T06:06:14.453Z,1.67
2019-01-29T06:08:44.609Z,1.64
2019-01-29T06:11:14.963Z,1.61
2019-01-29T06:13:45.119Z,1.53
2019-01-29T06:16:15.170Z,1.63
2019-01-29T06:18:45.356Z,1.58
2019-01-29T06:21:16.644Z,1.46
2019-01-29T06:23:46.814Z,1.49
2019-01-29T06:26:17.722Z,1.44
2019-01-29T06:28:47.756Z,1.35
2019-01-29T06:31:20.220Z,1.42
2019-01-29T06:33:50.080Z,1.25
2019-01-29T06:36:20.032Z,1.32
2019-01-29T06:38:49.942Z,1.19
2019-01-29T06:41:21.910Z,1.31
2019-01-29T06:43:52.096Z,1.38
2019-01-29T06:46:22.118Z,1.20
2019-01-29T06:48:53.889Z,1.27
2019-01-29T06:51:23.968Z,1.14
2019-01-29T06:53:53.956Z,1.25
2019-01-29T06:56:24.406Z,1.11
2019-01-29T06:58:54.536Z,1.13
2019-01-29T07:01:24.574Z,1.11
2019-01-29T07:03:58.092Z,1.14
2019-01-29T07:06:28.040Z,1.19
2019-01-29T07:08:58.005Z,1.10
2019-01-29T07:11:30.731Z,1.14
2019-01-29T07:14:01.882Z,1.13
2019-01-29T07:16:50.860Z,1.12
2019-01-29T07:19:39.746Z,1.17
2019-01-29T07:22:09.660Z,1.14
2019-01-29T07:24:42.930Z,1.16
2019-01-29T07:27:11.354Z,1.05
2019-01-29T07:29:41.149Z,1.27
2019-01-29T07:32:12.610Z,1.36
2019-01-29T07:34:42.498Z,1.27
2019-01-29T07:37:12.417Z,1.33
2019-01-29T07:39:42.353Z,1.28
2019-01-29T07:42:12.249Z,1.21
2019-01-29T07:44:42.291Z,1.28
2019-01-29T07:47:12.415Z,1.29
2019-01-29T07:49:42.415Z,1.35
2019-01-29T07:52:12.884Z,1.47
2019-01-29T07:54:50.952Z,1.44
2019-01-29T07:57:15.622Z,1.61
2019-01-29T07:59:45.747Z,1.72
2019-01-29T08:02:16.068Z,1.89
2019-01-29T08:04:46.183Z,1.94
2019-01-29T08:07:16.283Z,2.05
2019-01-29T08:09:46.954Z,2.10
2019-01-29T08:12:17.039Z,2.21
2019-01-29T08:14:47.311Z,2.23
2019-01-29T08:17:17.177Z,2.24
2019-01-29T08:19:47.104Z,2.20
2019-01-29T08:22:17.015Z,2.30
2019-01-29T08:24:52.032Z,2.19
2019-01-29T08:27:18.797Z,2.30
2019-01-29T08:29:48.813Z,2.39
2019-01-29T08:32:20.724Z,2.38
2019-01-29T08:34:50.616Z,2.44
2019-01-29T08:37:20.499Z,2.47
2019-01-29T08:39:50.445Z,2.61
2019-01-29T08:42:22.653Z,2.67
2019-01-29T08:44:52.561Z,2.50
2019-01-29T08:47:22.463Z,2.68
2019-01-29T08:49:52.518Z,2.72
2019-01-29T08:52:22.414Z,2.77
2019-01-29T08:54:52.869Z,2.79
2019-01-29T08:57:22.729Z,2.82
2019-01-29T08:59:53.628Z,2.82
2019-01-29T09:02:23.609Z,2.89
2019-01-29T09:04:59.797Z,2.92
2019-01-29T09:07:29.757Z,3.10
2019-01-29T09:09:59.641Z,3.15
2019-01-29T09:12:29.704Z,2.91
2019-01-29T09:14:59.603Z,2.91
2019-01-29T09:17:29.518Z,2.93
2019-01-29T09:20:00.504Z,3.08
2019-01-29T09:22:30.444Z,3.00
2019-01-29T09:25:00.440Z,3.11
2019-01-29T09:27:30.329Z,3.34
2019-01-29T09:30:00.248Z,3.53
2019-01-29T09:32:31.510Z,3.58
2019-01-29T09:35:01.369Z,3.60
2019-01-29T09:37:31.457Z,3.54
2019-01-29T09:40:01.504Z,3.57
2019-01-29T09:42:32.509Z,3.62
2019-01-29T09:45:02.432Z,3.67
2019-01-29T09:47:33.942Z,3.82
2019-01-29T09:50:03.849Z,3.81
2019-01-29T09:52:33.822Z,3.83
2019-01-29T09:55:03.722Z,3.84
2019-01-29T09:57:36.896Z,3.73
2019-01-29T10:00:08.968Z,3.75
2019-01-29T10:02:38.978Z,3.82
2019-01-29T10:05:08.920Z,3.90
2019-01-29T10:07:38.917Z,3.97
2019-01-29T10:10:09.113Z,4.01
2019-01-29T10:12:39.036Z,4.17
2019-01-29T10:15:14.895Z,4.16
2019-01-29T10:17:45.090Z,3.99
2019-01-29T10:20:15.056Z,4.11
2019-01-29T10:22:46.170Z,4.20
2019-01-29T10:25:16.084Z,4.28
2019-01-29T10:27:46.048Z,4.33
2019-01-29T10:30:16.092Z,4.22
2019-01-29T10:32:46.311Z,4.34
2019-01-29T10:35:17.830Z,4.28
2019-01-29T10:37:47.889Z,4.11
2019-01-29T10:40:19.805Z,4.02
2019-01-29T10:42:49.753Z,4.08
2019-01-29T10:45:20.166Z,4.00
2019-01-29T10:47:50.270Z,3.98
2019-01-29T10:50:21.852Z,4.09
2019-01-29T10:52:52.076Z,4.28
2019-01-29T10:55:22.006Z,4.26
2019-01-29T10:57:51.908Z,4.29
2019-01-29T11:00:36.395Z,4.34
2019-01-29T11:03:06.676Z,4.42
2019-01-29T11:05:36.572Z,4.36
2019-01-29T11:08:06.879Z,4.21
2019-01-29T11:10:37.130Z,4.43
2019-01-29T11:13:07.417Z,4.47
2019-01-29T11:15:40.798Z,4.46
2019-01-29T11:18:15.210Z,4.58
2019-01-29T11:20:45.052Z,4.66
2019-01-29T11:23:16.094Z,4.82
2019-01-29T11:25:46.089Z,5.09
2019-01-29T11:28:16.048Z,5.21
2019-01-29T11:30:46.399Z,5.36
2019-01-29T11:33:16.458Z,5.33
2019-01-29T11:35:46.700Z,5.23
2019-01-29T11:38:18.277Z,5.13
2019-01-29T11:40:48.613Z,4.89
2019-01-29T11:43:18.650Z,4.89
2019-01-29T11:45:53.966Z,4.67
2019-01-29T11:48:24.017Z,4.46
2019-01-29T11:50:53.934Z,4.51
2019-01-29T11:53:24.023Z,4.46
2019-01-29T11:56:04.394Z,4.37
2019-01-29T11:58:28.877Z,4.51
2019-01-29T12:01:04.650Z,4.52
2019-01-29T12:03:34.765Z,4.63
2019-01-29T12:06:08.471Z,4.53
2019-01-29T12:08:38.591Z,4.41
2019-01-29T12:11:41.542Z,4.38
2019-01-29T12:14:12.067Z,4.32
2019-01-29T12:16:42.246Z,4.10
2019-01-29T12:19:20.203Z,4.09
2019-01-29T12:21:51.553Z,4.16
2019-01-29T12:24:21.893Z,4.22
2019-01-29T12:26:51.827Z,4.11
2019-01-29T12:29:21.959Z,4.16
2019-01-29T12:31:51.918Z,4.10
2019-01-29T12:34:29.835Z,4.18
2019-01-29T12:37:00.487Z,4.13
2019-01-29T12:39:30.966Z,4.20
2019-01-29T12:42:00.987Z,4.22
2019-01-29T12:44:31.925Z,4.29
2019-01-29T12:47:02.817Z,4.47
2019-01-29T12:49:34.679Z,4.46
2019-01-29T12:52:23.438Z,4.54
2019-01-29T12:54:55.187Z,4.22
2019-01-29T12:57:25.125Z,4.66
2019-01-29T13:00:01.520Z,4.78
2019-01-29T13:02:31.819Z,5.03
2019-01-29T13:05:01.895Z,5.06
2019-01-29T13:07:31.954Z,4.85
2019-01-29T13:10:02.037Z,4.89
2019-01-29T13:12:32.112Z,4.72
2019-01-29T13:15:02.188Z,4.85
2019-01-29T13:17:32.359Z,4.94
2019-01-29T13:20:02.523Z,4.74
2019-01-29T13:22:33.502Z,4.81
2019-01-29T13:25:03.671Z,4.79
2019-01-29T13:27:34.118Z,4.80
2019-01-29T13:30:04.121Z,4.83
2019-01-29T13:32:34.249Z,4.84
2019-01-29T13:35:04.530Z,4.88
2019-01-29T13:37:52.403Z,4.89
2019-01-29T13:40:35.368Z,4.57
2019-01-29T13:43:08.520Z,4.51
2019-01-29T13:45:38.729Z,4.51
2019-01-29T13:48:08.701Z,4.65
2019-01-29T13:50:42.369Z,4.44
2019-01-29T13:53:31.258Z,4.62
2019-01-29T13:56:01.340Z,4.82
2019-01-29T13:58:32.205Z,5.11
2019-01-29T14:01:02.471Z,5.18
2019-01-29T14:03:36.013Z,5.09
2019-01-29T14:06:07.706Z,4.97
2019-01-29T14:08:37.911Z,4.98
2019-01-29T14:11:07.765Z,5.08
2019-01-29T14:13:37.898Z,5.11
2019-01-29T14:16:11.559Z,4.93
2019-01-29T14:18:41.514Z,5.21
2019-01-29T14:21:11.535Z,5.24
2019-01-29T14:23:41.577Z,5.19
2019-01-29T14:26:12.593Z,5.18
2019-01-29T14:28:44.769Z,5.06
2019-01-29T14:31:14.738Z,4.74
2019-01-29T14:33:44.785Z,4.63
2019-01-29T14:36:16.817Z,4.70
2019-01-29T14:39:24.540Z,4.83
2019-01-29T14:41:54.487Z,4.86
2019-01-29T14:44:37.140Z,4.86
2019-01-29T14:47:13.787Z,4.95
2019-01-29T14:50:10.854Z,4.68
2019-01-29T14:53:22.039Z,4.74
2019-01-29T14:56:08.945Z,4.80
2019-01-29T14:58:39.117Z,4.79
2019-01-29T15:01:22.646Z,4.55
2019-01-29T15:03:52.771Z,4.41
2019-01-29T15:06:32.328Z,4.41
2019-01-29T15:08:59.030Z,4.36
2019-01-29T15:11:39.445Z,4.50
2019-01-29T15:14:26.261Z,4.46
2019-01-29T15:17:13.067Z,4.65
2019-01-29T15:19:43.051Z,4.55
2019-01-29T15:22:13.025Z,4.63
2019-01-29T15:24:43.407Z,4.30
2019-01-29T15:27:14.644Z,4.33
2019-01-29T15:29:44.773Z,4.11
2019-01-29T15:32:16.599Z,4.09
2019-01-29T15:34:48.106Z,3.86
2019-01-29T15:37:18.224Z,3.80
2019-01-29T15:39:48.724Z,3.83
2019-01-29T15:42:19.239Z,3.85
2019-01-29T15:44:50.814Z,3.89
2019-01-29T15:47:22.376Z,3.56
2019-01-29T15:49:52.973Z,3.59
2019-01-29T15:52:23.820Z,3.59
2019-01-29T15:54:54.404Z,3.62
2019-01-29T15:57:30.043Z,3.50
2019-01-29T16:00:00.202Z,3.43
2019-01-29T16:02:30.292Z,3.31
2019-01-29T16:05:01.157Z,3.27
2019-01-29T16:07:32.284Z,3.32
2019-01-29T16:10:02.413Z,3.30
2019-01-29T16:12:38.808Z,3.19
2019-01-29T16:15:09.850Z,3.11
2019-01-29T16:17:41.597Z,3.10
2019-01-29T16:20:13.820Z,3.10
2019-01-29T16:22:44.459Z,3.08
2019-01-29T16:25:15.231Z,2.96
2019-01-29T16:27:45.372Z,2.98
2019-01-29T16:30:24.079Z,2.95
2019-01-29T16:32:54.235Z,2.95
2019-01-29T16:35:28.561Z,2.88
2019-01-29T16:37:58.854Z,2.89
2019-01-29T16:40:30.286Z,2.79
2019-01-29T16:43:00.557Z,2.81
2019-01-29T16:45:34.381Z,2.82
2019-01-29T16:48:04.599Z,2.83
2019-01-29T16:50:34.640Z,2.79
2019-01-29T16:53:04.753Z,2.69
2019-01-29T16:55:36.112Z,2.77
2019-01-29T16:58:06.585Z,2.73
2019-01-29T17:00:36.795Z,2.68
2019-01-29T17:03:11.964Z,2.61
2019-01-29T17:06:08.155Z,2.58
2019-01-29T17:08:38.477Z,2.62
2019-01-29T17:11:52.448Z,2.52
2019-01-29T17:14:26.416Z,2.53
2019-01-29T17:17:02.339Z,2.55
2019-01-29T17:19:37.393Z,2.50
2019-01-29T17:22:07.610Z,2.51
2019-01-29T17:24:38.116Z,2.49
2019-01-29T17:27:10.177Z,2.44
2019-01-29T17:29:40.229Z,2.42
2019-01-29T17:32:11.418Z,2.38
2019-01-29T17:34:44.471Z,2.35
2019-01-29T17:37:14.774Z,2.14
2019-01-29T17:39:45.176Z,2.07
2019-01-29T17:42:15.258Z,2.05
2019-01-29T17:44:45.242Z,2.15
2019-01-29T17:47:15.372Z,2.17
2019-01-29T17:49:56.536Z,2.15
2019-01-29T17:52:36.319Z,2.16
2019-01-29T17:55:09.633Z,2.11
2019-01-29T17:57:50.491Z,2.08
2019-01-29T18:00:20.067Z,2.07
2019-01-29T18:03:20.035Z,1.68
2019-01-29T18:05:50.429Z,1.69
2019-01-29T18:08:21.860Z,1.26
2019-01-29T18:10:51.879Z,1.22
2019-01-29T18:13:22.200Z,1.58
2019-01-29T18:15:52.856Z,1.72
2019-01-29T18:18:23.096Z,1.77
2019-01-29T18:20:55.448Z,1.75
2019-01-29T18:23:26.145Z,1.79
2019-01-29T18:26:01.287Z,1.81
2019-01-29T18:28:35.913Z,1.72
2019-01-29T18:31:05.777Z,1.73
2019-01-29T18:33:35.816Z,1.67
2019-01-29T18:36:06.049Z,1.63
2019-01-29T18:38:39.026Z,1.61
2019-01-29T18:41:10.914Z,1.52
2019-01-29T18:43:42.568Z,1.68
2019-01-29T18:46:14.712Z,1.73
2019-01-29T18:48:45.241Z,1.66
2019-01-29T18:51:15.641Z,1.61
2019-01-29T18:53:48.233Z,1.59
2019-01-29T18:56:18.317Z,1.60
2019-01-29T18:58:51.661Z,1.53
2019-01-29T19:01:23.303Z,1.45
2019-01-29T19:03:54.261Z,1.50
2019-01-29T19:06:25.893Z,1.51
2019-01-29T19:08:57.794Z,1.53
2019-01-29T19:11:27.905Z,1.50
2019-01-29T19:14:00.071Z,1.50
2019-01-29T19:16:30.381Z,1.51
2019-01-29T19:19:00.605Z,1.50
2019-01-29T19:21:32.912Z,1.46
2019-01-29T19:24:03.779Z,1.44
2019-01-29T19:26:34.021Z,1.41
2019-01-29T19:29:06.519Z,1.42
2019-01-29T19:31:36.053Z,1.44
2019-01-29T19:34:07.673Z,1.44
2019-01-29T19:36:38.370Z,1.32
2019-01-29T19:39:10.063Z,1.33
2019-01-29T19:41:40.274Z,1.34
2019-01-29T19:44:10.249Z,1.19
2019-01-29T19:46:40.858Z,1.30
2019-01-29T19:49:11.005Z,1.28
2019-01-29T19:51:49.200Z,1.26
2019-01-29T19:57:35.488Z,1.28
2019-01-29T20:00:10.916Z,1.23
2019-01-29T20:02:41.688Z,1.10
2019-01-29T20:05:14.146Z,1.07
2019-01-29T20:07:44.860Z,1.06
2019-01-29T20:10:15.251Z,1.07
2019-01-29T20:12:45.284Z,1.04
2019-01-29T20:15:16.609Z,0.96
2019-01-29T20:17:49.256Z,1.01
2019-01-29T20:20:39.316Z,1.00
2019-01-29T20:23:09.719Z,1.00
2019-01-29T20:25:39.730Z,0.98
2019-01-29T20:28:09.823Z,0.99
2019-01-29T20:30:41.250Z,0.94
2019-01-29T20:33:11.599Z,0.95
2019-01-29T20:35:43.258Z,0.94
2019-01-29T20:38:13.548Z,0.97
2019-01-29T20:40:43.619Z,0.88
2019-01-29T20:43:13.655Z,0.92
2019-01-29T20:45:43.658Z,0.92
2019-01-29T20:48:13.506Z,0.89
2019-01-29T20:50:43.486Z,0.92
2019-01-29T20:53:13.572Z,0.90
2019-01-29T20:55:43.475Z,0.91
2019-01-29T20:58:17.071Z,0.90
2019-01-29T21:00:47.053Z,0.91
2019-01-29T21:03:16.978Z,0.78
2019-01-29T21:05:50.008Z,0.81
2019-01-29T21:08:20.046Z,0.87
2019-01-29T21:10:50.138Z,0.83
2019-01-29T21:13:23.122Z,0.68
2019-01-29T21:15:53.072Z,0.60
2019-01-29T21:18:24.072Z,0.68
2019-01-29T21:20:57.088Z,0.65
2019-01-29T21:23:26.126Z,0.64
2019-01-29T21:25:56.074Z,0.66
2019-01-29T21:28:26.200Z,0.62
2019-01-29T21:30:56.317Z,0.63
2019-01-29T21:33:26.309Z,0.52
2019-01-29T21:35:56.304Z,0.53
2019-01-29T21:38:26.225Z,0.53
2019-01-29T21:40:56.178Z,0.53
2019-01-29T21:43:26.078Z,0.45
2019-01-29T21:45:56.059Z,0.47
2019-01-29T21:48:26.056Z,0.53
2019-01-29T21:50:57.817Z,0.52
2019-01-29T21:53:31.934Z,0.52
2019-01-29T21:56:02.097Z,0.53
2019-01-29T21:58:33.706Z,0.50
2019-01-29T22:01:06.510Z,0.51
2019-01-29T22:03:37.068Z,0.46
2019-01-29T22:06:08.886Z,0.42
2019-01-29T22:08:42.183Z,0.41
2019-01-29T22:11:12.435Z,0.45
2019-01-29T22:13:45.163Z,0.37
2019-01-29T22:16:22.588Z,0.41
2019-01-29T22:18:53.263Z,0.36
2019-01-29T22:21:24.885Z,0.32
2019-01-29T22:23:54.956Z,0.32
2019-01-29T22:26:24.997Z,0.33
2019-01-29T22:28:56.319Z,0.29
2019-01-29T22:31:26.353Z,0.25
2019-01-29T22:34:01.118Z,0.31
2019-01-29T22:36:30.836Z,0.34
2019-01-29T22:39:00.786Z,0.20
2019-01-29T22:41:33.744Z,0.33
2019-01-29T22:44:03.722Z,0.29
2019-01-29T22:46:34.806Z,0.26
2019-01-29T22:49:05.803Z,0.28
2019-01-29T22:51:36.496Z,0.26
2019-01-29T22:54:06.637Z,0.28
2019-01-29T22:56:36.749Z,0.29
2019-01-29T22:59:07.229Z,0.33
2019-01-29T23:01:42.059Z,0.22
2019-01-29T23:04:26.425Z,0.28
2019-01-29T23:07:32.873Z,0.26
2019-01-29T23:10:04.579Z,0.25
2019-01-29T23:12:37.826Z,0.21
2019-01-29T23:15:09.884Z,0.14
2019-01-29T23:17:39.945Z,0.19
2019-01-29T23:20:11.831Z,0.16
2019-01-29T23:23:06.925Z,0.16
2019-01-29T23:25:36.949Z,0.17
2019-01-29T23:28:07.425Z,0.20
2019-01-29T23:30:38.387Z,0.19
2019-01-29T23:33:08.419Z,0.21
2019-01-29T23:35:38.500Z,0.22
2019-01-29T23:38:08.655Z,0.17
2019-01-29T23:40:39.848Z,0.05
2019-01-29T23:43:09.834Z,0.04
2019-01-29T23:45:39.950Z,0.07
2019-01-29T23:48:09.897Z,-0.06
2019-01-29T23:50:39.947Z,-0.01
2019-01-29T23:53:09.888Z,0.06
2019-01-29T23:55:44.047Z,0.02
2019-01-29T23:58:14.175Z,0.03
